createdAt,value
2019-02-19T00:00:48.516Z,81.88
2019-02-19T00:03:17.171Z,81.37
2019-02-19T00:05:45.827Z,82.36
2019-02-19T00:08:14.350Z,81.94
2019-02-19T00:10:42.731Z,81.26
2019-02-19T00:13:11.415Z,81.25
2019-02-19T00:15:40.210Z,80.54
2019-02-19T00:18:08.757Z,80.12
2019-02-19T00:20:37.056Z,80.94
2019-02-19T00:23:05.667Z,80.56
2019-02-19T00:25:33.905Z,80.44
2019-02-19T00:28:02.536Z,80.87
2019-02-19T00:30:31.122Z,79.61
2019-02-19T00:32:59.722Z,80.74
2019-02-19T00:35:27.912Z,81.31
2019-02-19T00:37:56.180Z,80.92
2019-02-19T00:40:24.351Z,81.49
2019-02-19T00:42:52.625Z,81.34
2019-02-19T00:45:20.760Z,81.75
2019-02-19T00:47:49.306Z,81.74
2019-02-19T00:50:16.881Z,82.14
2019-02-19T00:52:45.414Z,81.97
2019-02-19T00:55:14.134Z,82.51
2019-02-19T00:57:42.761Z,82.58
2019-02-19T01:03:32.110Z,81.83
2019-02-19T01:05:59.678Z,82.52
2019-02-19T01:08:27.960Z,82.82
2019-02-19T01:10:56.544Z,82.45
2019-02-19T01:13:24.461Z,81.43
2019-02-19T01:15:52.816Z,80.29
2019-02-19T01:18:21.000Z,81.52
2019-02-19T01:20:49.903Z,80.59
2019-02-19T01:23:18.610Z,81.74
2019-02-19T01:25:46.741Z,81.55
2019-02-19T01:28:15.334Z,81.67
2019-02-19T01:30:43.567Z,81.40
2019-02-19T01:33:11.090Z,81.55
2019-02-19T01:35:39.289Z,82.46
2019-02-19T01:38:07.440Z,82.64
2019-02-19T01:40:36.051Z,83.36
2019-02-19T01:43:04.236Z,83.11
2019-02-19T01:45:34.307Z,82.21
2019-02-19T01:48:02.676Z,82.54
2019-02-19T01:50:30.591Z,83.06
2019-02-19T01:52:58.836Z,83.57
2019-02-19T01:55:27.119Z,83.06
2019-02-19T01:57:54.931Z,82.45
2019-02-19T02:00:23.516Z,82.18
2019-02-19T02:02:51.800Z,81.96
2019-02-19T02:05:20.080Z,82.02
2019-02-19T02:07:48.256Z,82.62
2019-02-19T02:10:15.838Z,82.79
2019-02-19T02:12:44.401Z,82.15
2019-02-19T02:15:12.380Z,82.06
2019-02-19T02:17:40.970Z,82.55
2019-02-19T02:20:09.735Z,83.70
2019-02-19T02:22:38.452Z,84.01
2019-02-19T02:25:18.654Z,84.41
2019-02-19T02:27:46.695Z,84.65
2019-02-19T02:30:14.952Z,84.85
2019-02-19T02:32:43.461Z,84.38
2019-02-19T02:35:11.750Z,83.41
2019-02-19T02:37:40.327Z,82.73
2019-02-19T02:40:08.617Z,83.11
2019-02-19T02:42:37.055Z,84.06
2019-02-19T02:45:04.575Z,84.25
2019-02-19T02:47:33.084Z,84.60
2019-02-19T02:50:01.425Z,85.28
2019-02-19T02:52:29.831Z,84.48
2019-02-19T02:54:58.315Z,84.66
2019-02-19T02:57:26.927Z,84.24
2019-02-19T02:59:54.755Z,84.42
2019-02-19T03:02:23.150Z,84.73
2019-02-19T03:04:51.431Z,84.63
2019-02-19T03:10:26.710Z,84.18
2019-02-19T03:12:55.155Z,84.38
2019-02-19T03:15:23.776Z,84.51
2019-02-19T03:17:52.037Z,83.98
2019-02-19T03:20:20.719Z,83.33
2019-02-19T03:22:49.008Z,83.50
2019-02-19T03:25:16.882Z,83.47
2019-02-19T03:27:45.054Z,83.67
2019-02-19T03:30:13.748Z,84.25
2019-02-19T03:32:42.034Z,84.10
2019-02-19T03:35:09.906Z,84.46
2019-02-19T03:37:38.128Z,84.30
2019-02-19T03:40:07.617Z,84.45
2019-02-19T03:42:42.396Z,84.44
2019-02-19T03:45:11.137Z,84.57
2019-02-19T03:47:39.441Z,84.37
2019-02-19T03:50:07.721Z,84.58
2019-02-19T03:52:36.381Z,85.33
2019-02-19T03:55:44.943Z,85.19
2019-02-19T03:58:12.759Z,85.14
2019-02-19T04:00:41.230Z,84.47
2019-02-19T04:03:09.861Z,84.62
2019-02-19T04:05:38.508Z,84.76
2019-02-19T04:08:06.382Z,84.70
2019-02-19T04:10:34.634Z,84.45
2019-02-19T04:13:03.257Z,84.90
2019-02-19T04:15:31.853Z,85.92
2019-02-19T04:18:00.458Z,85.47
2019-02-19T04:20:29.287Z,85.45
2019-02-19T04:22:56.812Z,85.53
2019-02-19T04:25:25.390Z,85.09
2019-02-19T04:27:53.560Z,84.02
2019-02-19T04:30:21.446Z,84.44
2019-02-19T04:32:49.970Z,83.87
2019-02-19T04:35:18.306Z,84.71
2019-02-19T04:37:46.893Z,85.18
2019-02-19T04:40:15.647Z,84.75
2019-02-19T04:42:43.977Z,84.11
2019-02-19T04:45:12.061Z,84.15
2019-02-19T04:47:40.845Z,83.75
2019-02-19T04:50:09.148Z,83.77
2019-02-19T04:52:37.827Z,84.17
2019-02-19T04:55:06.653Z,83.67
2019-02-19T04:57:35.305Z,84.38
2019-02-19T05:00:03.273Z,83.27
2019-02-19T05:02:31.972Z,83.02
2019-02-19T05:05:00.665Z,83.73
2019-02-19T05:07:29.257Z,85.37
2019-02-19T05:09:57.958Z,84.82
2019-02-19T05:12:25.854Z,85.00
2019-02-19T05:14:54.316Z,85.47
2019-02-19T05:17:22.829Z,85.95
2019-02-19T05:19:51.166Z,86.09
2019-02-19T05:22:19.726Z,85.20
2019-02-19T05:24:48.488Z,85.19
2019-02-19T05:27:17.035Z,84.21
2019-02-19T05:29:45.322Z,83.95
2019-02-19T05:32:14.017Z,84.67
2019-02-19T05:34:42.597Z,85.34
2019-02-19T05:37:11.244Z,85.08
2019-02-19T05:39:39.886Z,84.79
2019-02-19T05:42:08.576Z,83.98
2019-02-19T05:44:37.171Z,83.57
2019-02-19T05:47:05.109Z,83.48
2019-02-19T05:49:33.455Z,84.40
2019-02-19T05:52:01.982Z,84.85
2019-02-19T05:54:30.323Z,85.11
2019-02-19T05:56:58.596Z,85.54
2019-02-19T05:59:27.267Z,85.58
2019-02-19T06:01:55.642Z,85.78
2019-02-19T06:04:23.946Z,86.07
2019-02-19T06:06:52.531Z,85.66
2019-02-19T06:09:20.141Z,85.33
2019-02-19T06:11:48.360Z,85.32
2019-02-19T06:14:16.998Z,85.14
2019-02-19T06:16:45.611Z,85.43
2019-02-19T06:19:13.824Z,85.66
2019-02-19T06:21:41.623Z,85.82
2019-02-19T06:24:10.309Z,85.44
2019-02-19T06:26:38.990Z,85.72
2019-02-19T06:29:07.591Z,86.19
2019-02-19T06:31:35.872Z,85.99
2019-02-19T06:34:04.239Z,85.34
2019-02-19T06:36:32.508Z,85.73
2019-02-19T06:39:00.791Z,85.66
2019-02-19T06:41:29.376Z,85.90
2019-02-19T06:43:57.663Z,86.30
2019-02-19T06:46:26.058Z,86.48
2019-02-19T06:48:54.756Z,86.14
2019-02-19T06:51:22.927Z,86.06
2019-02-19T06:53:51.290Z,85.88
2019-02-19T06:56:19.791Z,85.62
2019-02-19T06:58:48.058Z,84.96
2019-02-19T07:04:18.991Z,83.87
2019-02-19T07:06:46.923Z,82.68
2019-02-19T07:09:15.166Z,82.54
2019-02-19T07:11:43.408Z,82.83
2019-02-19T07:14:11.657Z,82.62
2019-02-19T07:16:39.525Z,82.78
2019-02-19T07:19:08.183Z,82.88
2019-02-19T07:21:36.502Z,82.81
2019-02-19T07:24:04.829Z,82.72
2019-02-19T07:26:40.197Z,82.31
2019-02-19T07:29:08.749Z,82.15
2019-02-19T07:31:37.017Z,81.66
2019-02-19T07:34:05.346Z,80.79
2019-02-19T07:36:33.259Z,79.86
2019-02-19T07:39:01.998Z,79.31
2019-02-19T07:41:29.824Z,79.34
2019-02-19T07:43:58.290Z,78.81
2019-02-19T07:46:26.166Z,78.28
2019-02-19T07:48:54.763Z,77.60
2019-02-19T07:51:22.636Z,77.53
2019-02-19T07:53:51.368Z,76.20
2019-02-19T07:56:20.017Z,76.26
2019-02-19T07:58:47.983Z,76.30
2019-02-19T08:01:16.681Z,76.30
2019-02-19T08:03:45.366Z,76.13
2019-02-19T08:06:13.652Z,75.98
2019-02-19T08:08:41.531Z,76.27
2019-02-19T08:11:10.208Z,76.63
2019-02-19T08:13:38.557Z,76.64
2019-02-19T08:16:06.842Z,76.65
2019-02-19T08:18:35.058Z,76.41
2019-02-19T08:21:03.456Z,76.12
2019-02-19T08:23:31.828Z,75.67
2019-02-19T08:26:00.121Z,75.69
2019-02-19T08:28:28.493Z,75.84
2019-02-19T08:30:57.083Z,75.83
2019-02-19T08:33:25.327Z,75.79
2019-02-19T08:35:53.661Z,74.90
2019-02-19T08:38:21.883Z,74.27
2019-02-19T08:40:50.536Z,73.35
2019-02-19T08:43:19.367Z,72.62
2019-02-19T08:45:48.048Z,72.36
2019-02-19T08:48:16.220Z,71.25
2019-02-19T08:50:44.357Z,70.95
2019-02-19T08:53:13.053Z,70.50
2019-02-19T08:55:40.973Z,71.32
2019-02-19T08:58:09.683Z,71.73
2019-02-19T09:00:38.602Z,71.44
2019-02-19T09:03:06.823Z,71.27
2019-02-19T09:05:35.072Z,71.36
2019-02-19T09:08:03.459Z,71.26
2019-02-19T09:10:31.762Z,70.89
2019-02-19T09:13:00.122Z,69.94
2019-02-19T09:15:28.090Z,69.17
2019-02-19T09:17:55.712Z,69.34
2019-02-19T09:20:24.435Z,69.57
2019-02-19T09:22:52.014Z,69.26
2019-02-19T09:25:20.564Z,68.73
2019-02-19T09:27:48.808Z,68.07
2019-02-19T09:30:17.382Z,66.48
2019-02-19T09:32:44.854Z,65.20
2019-02-19T09:35:13.495Z,63.81
2019-02-19T09:37:41.844Z,62.13
2019-02-19T09:40:09.892Z,60.70
2019-02-19T09:42:38.617Z,59.38
2019-02-19T09:45:07.696Z,58.98
2019-02-19T09:47:36.220Z,57.12
2019-02-19T09:50:04.052Z,57.08
2019-02-19T09:52:31.928Z,55.26
2019-02-19T09:55:00.583Z,54.76
2019-02-19T09:57:28.807Z,53.57
2019-02-19T09:59:56.788Z,53.12
2019-02-19T10:02:25.563Z,52.82
2019-02-19T10:04:54.215Z,51.80
2019-02-19T10:07:22.474Z,50.23
2019-02-19T10:09:50.995Z,49.34
2019-02-19T10:12:19.227Z,49.12
2019-02-19T10:14:47.501Z,48.60
2019-02-19T10:17:15.528Z,49.36
2019-02-19T10:19:55.525Z,49.17
2019-02-19T10:22:23.704Z,49.54
2019-02-19T10:24:52.486Z,48.76
2019-02-19T10:27:28.651Z,49.00
2019-02-19T10:29:56.243Z,49.99
2019-02-19T10:32:24.596Z,48.33
2019-02-19T10:34:52.881Z,49.59
2019-02-19T10:37:21.677Z,47.10
2019-02-19T10:39:49.839Z,47.60
2019-02-19T10:42:19.034Z,46.56
2019-02-19T10:44:47.676Z,49.10
2019-02-19T10:47:15.625Z,50.52
2019-02-19T10:49:43.805Z,51.43
2019-02-19T10:52:12.156Z,51.73
2019-02-19T10:54:40.488Z,50.77
2019-02-19T10:57:09.192Z,51.29
2019-02-19T10:59:37.463Z,50.62
2019-02-19T11:02:05.723Z,50.46
2019-02-19T11:04:34.058Z,49.67
2019-02-19T11:07:02.609Z,48.69
2019-02-19T11:09:30.498Z,48.67
2019-02-19T11:11:58.445Z,49.13
2019-02-19T11:14:26.877Z,49.89
2019-02-19T11:16:55.192Z,50.70
2019-02-19T11:19:23.906Z,51.78
2019-02-19T11:21:52.703Z,51.69
2019-02-19T11:24:21.382Z,51.89
2019-02-19T11:26:49.782Z,50.89
2019-02-19T11:29:18.403Z,50.38
2019-02-19T11:31:47.014Z,49.60
2019-02-19T11:34:15.685Z,49.92
2019-02-19T11:36:43.656Z,50.99
2019-02-19T11:39:52.336Z,51.17
2019-02-19T11:42:20.698Z,51.55
2019-02-19T11:44:49.210Z,50.36
2019-02-19T11:47:26.303Z,50.58
2019-02-19T11:49:54.363Z,50.17
2019-02-19T11:52:22.271Z,49.51
2019-02-19T11:54:50.613Z,49.47
2019-02-19T11:57:18.477Z,48.75
2019-02-19T11:59:46.706Z,48.00
2019-02-19T12:02:16.167Z,47.71
2019-02-19T12:04:44.680Z,45.87
2019-02-19T12:07:13.386Z,48.43
2019-02-19T12:09:40.913Z,49.27
2019-02-19T12:12:09.526Z,48.60
2019-02-19T12:14:37.883Z,48.57
2019-02-19T12:17:06.073Z,48.79
2019-02-19T12:19:34.248Z,49.64
2019-02-19T12:22:02.838Z,50.71
2019-02-19T12:24:31.438Z,50.55
2019-02-19T12:27:00.314Z,50.24
2019-02-19T12:29:28.278Z,51.44
2019-02-19T12:31:56.639Z,51.58
2019-02-19T12:34:25.214Z,51.26
2019-02-19T12:40:00.823Z,49.96
2019-02-19T12:42:29.417Z,50.99
2019-02-19T12:44:57.777Z,51.84
2019-02-19T12:47:26.323Z,52.56
2019-02-19T12:49:54.249Z,53.60
2019-02-19T12:55:03.885Z,54.06
2019-02-19T12:57:32.426Z,53.17
2019-02-19T13:00:00.689Z,53.79
2019-02-19T13:02:28.983Z,53.98
2019-02-19T13:04:57.068Z,54.28
2019-02-19T13:07:25.023Z,54.91
2019-02-19T13:09:53.302Z,56.05
2019-02-19T13:12:21.609Z,56.20
2019-02-19T13:14:49.463Z,57.48
2019-02-19T13:17:17.677Z,57.52
2019-02-19T13:19:46.337Z,57.58
2019-02-19T13:22:13.912Z,57.39
2019-02-19T13:24:43.087Z,56.41
2019-02-19T13:27:18.134Z,54.19
2019-02-19T13:29:46.417Z,52.12
2019-02-19T13:32:14.699Z,50.04
2019-02-19T13:34:43.004Z,48.52
2019-02-19T13:37:11.182Z,48.08
2019-02-19T13:39:39.863Z,46.59
2019-02-19T13:42:07.844Z,46.26
2019-02-19T13:44:36.293Z,45.04
2019-02-19T13:47:04.608Z,44.12
2019-02-19T13:49:32.876Z,44.29
2019-02-19T13:55:23.091Z,49.22
2019-02-19T13:57:51.408Z,51.73
2019-02-19T14:00:21.271Z,54.10
2019-02-19T14:02:49.864Z,55.89
2019-02-19T14:05:18.101Z,56.95
2019-02-19T14:07:46.081Z,57.64
2019-02-19T14:10:14.303Z,58.72
2019-02-19T14:12:42.096Z,60.46
2019-02-19T14:15:29.575Z,61.02
2019-02-19T14:21:10.275Z,62.09
2019-02-19T14:23:57.992Z,62.58
2019-02-19T14:26:45.083Z,62.54
2019-02-19T14:29:32.069Z,61.85
2019-02-19T14:32:19.397Z,61.15
2019-02-19T14:35:07.355Z,60.93
2019-02-19T14:37:54.741Z,60.26
2019-02-19T14:40:54.288Z,59.84
2019-02-19T14:43:41.777Z,60.18
2019-02-19T14:46:29.224Z,60.82
2019-02-19T14:49:16.971Z,61.01
2019-02-19T14:52:04.886Z,61.21
2019-02-19T14:54:52.265Z,61.56
2019-02-19T14:57:40.022Z,59.76
2019-02-19T15:00:27.668Z,55.52
2019-02-19T15:03:15.559Z,54.09
2019-02-19T15:05:53.668Z,55.57
2019-02-19T15:08:40.624Z,56.68
2019-02-19T15:11:28.059Z,58.93
2019-02-19T15:14:15.414Z,60.99
2019-02-19T15:17:02.828Z,62.77
2019-02-19T15:19:50.626Z,64.42
2019-02-19T15:22:37.727Z,65.27
2019-02-19T15:25:25.339Z,66.12
2019-02-19T15:28:10.105Z,66.35
2019-02-19T15:30:57.672Z,67.67
2019-02-19T15:33:36.032Z,67.63
2019-02-19T15:36:23.501Z,68.01
2019-02-19T15:39:11.304Z,68.19
2019-02-19T15:41:58.750Z,68.14
2019-02-19T15:44:35.768Z,69.08
2019-02-19T15:47:23.540Z,69.49
2019-02-19T15:50:11.314Z,69.99
2019-02-19T15:52:58.686Z,70.61
2019-02-19T15:55:46.405Z,70.92
2019-02-19T15:58:34.923Z,71.30
2019-02-19T16:01:22.779Z,71.32
2019-02-19T16:04:09.555Z,71.85
2019-02-19T16:06:56.760Z,72.43
2019-02-19T16:09:32.327Z,73.04
2019-02-19T16:12:19.401Z,73.52
2019-02-19T16:15:07.160Z,73.54
2019-02-19T16:17:54.603Z,73.86
2019-02-19T16:20:41.960Z,73.95
2019-02-19T16:23:28.996Z,73.88
2019-02-19T16:26:18.677Z,74.21
2019-02-19T16:29:13.092Z,74.13
2019-02-19T16:32:00.516Z,74.52
2019-02-19T16:34:47.909Z,74.21
2019-02-19T16:37:35.676Z,74.87
2019-02-19T16:40:42.437Z,75.28
2019-02-19T16:43:29.519Z,75.20
2019-02-19T16:46:17.060Z,76.09
2019-02-19T16:49:04.962Z,75.82
2019-02-19T16:51:52.640Z,75.77
2019-02-19T16:54:40.134Z,76.25
2019-02-19T16:57:27.207Z,76.32
2019-02-19T17:00:06.157Z,76.77
2019-02-19T17:02:53.171Z,77.28
2019-02-19T17:05:42.559Z,76.98
2019-02-19T17:08:37.484Z,77.41
2019-02-19T17:11:25.060Z,77.32
2019-02-19T17:14:12.419Z,77.52
2019-02-19T17:16:48.305Z,77.10
2019-02-19T17:19:36.037Z,77.75
2019-02-19T17:22:23.870Z,78.21
2019-02-19T17:25:11.769Z,78.06
2019-02-19T17:27:58.926Z,78.56
2019-02-19T17:33:48.126Z,78.62
2019-02-19T17:36:21.794Z,78.76
2019-02-19T17:38:55.492Z,78.89
2019-02-19T17:41:29.681Z,79.28
2019-02-19T17:44:06.620Z,79.46
2019-02-19T17:46:54.390Z,78.94
2019-02-19T17:49:42.157Z,78.79
2019-02-19T17:52:29.535Z,78.55
2019-02-19T17:55:16.542Z,78.29
2019-02-19T17:58:03.913Z,78.33
2019-02-19T18:01:10.648Z,79.09
2019-02-19T18:03:45.068Z,79.30
2019-02-19T18:06:32.401Z,79.07
2019-02-19T18:09:19.992Z,78.96
2019-02-19T18:11:53.900Z,79.10
2019-02-19T18:14:41.333Z,78.94
2019-02-19T18:17:29.099Z,79.12
2019-02-19T18:20:09.201Z,79.46
2019-02-19T18:22:37.886Z,79.07
2019-02-19T18:25:05.609Z,79.15
2019-02-19T18:27:33.222Z,79.49
2019-02-19T18:30:01.830Z,79.42
2019-02-19T18:32:30.243Z,79.46
2019-02-19T18:34:58.932Z,79.71
2019-02-19T18:37:27.578Z,79.82
2019-02-19T18:39:55.980Z,79.66
2019-02-19T18:42:24.228Z,79.57
2019-02-19T18:44:52.996Z,80.04
2019-02-19T18:47:21.320Z,80.15
2019-02-19T18:49:49.926Z,80.18
2019-02-19T18:52:18.201Z,80.56
2019-02-19T18:54:46.727Z,80.84
2019-02-19T18:57:15.221Z,81.05
2019-02-19T18:59:43.161Z,80.86
2019-02-19T19:02:11.752Z,81.03
2019-02-19T19:04:40.226Z,80.88
2019-02-19T19:07:08.800Z,82.00
2019-02-19T19:09:37.310Z,82.50
2019-02-19T19:12:05.488Z,82.01
2019-02-19T19:14:33.871Z,82.08
2019-02-19T19:17:02.183Z,81.49
2019-02-19T19:19:30.233Z,81.79
2019-02-19T19:21:58.553Z,81.80
2019-02-19T19:24:27.009Z,82.01
2019-02-19T19:26:55.324Z,82.16
2019-02-19T19:29:23.915Z,81.98
2019-02-19T19:31:52.470Z,82.20
2019-02-19T19:34:20.330Z,82.67
2019-02-19T19:36:48.726Z,82.96
2019-02-19T19:39:16.980Z,82.69
2019-02-19T19:41:45.756Z,82.86
2019-02-19T19:44:14.050Z,83.48
2019-02-19T19:46:42.375Z,83.89
2019-02-19T19:49:10.963Z,83.93
2019-02-19T19:51:39.447Z,84.11
2019-02-19T19:54:08.197Z,84.15
2019-02-19T19:56:36.761Z,84.50
2019-02-19T19:59:05.531Z,84.79
2019-02-19T20:01:33.120Z,85.13
2019-02-19T20:04:01.973Z,85.57
2019-02-19T20:06:30.234Z,86.00
2019-02-19T20:08:58.461Z,85.73
2019-02-19T20:11:26.776Z,85.85
2019-02-19T20:13:54.706Z,86.13
2019-02-19T20:16:23.578Z,86.05
2019-02-19T20:18:52.138Z,85.98
2019-02-19T20:21:26.523Z,86.41
2019-02-19T20:23:56.616Z,87.08
2019-02-19T20:26:25.460Z,87.44
2019-02-19T20:28:54.097Z,87.59
2019-02-19T20:31:22.488Z,87.84
2019-02-19T20:33:50.783Z,88.59
2019-02-19T20:36:19.114Z,87.17
2019-02-19T20:38:47.006Z,86.51
2019-02-19T20:41:15.705Z,85.57
2019-02-19T20:43:44.043Z,85.60
2019-02-19T20:46:12.708Z,85.94
2019-02-19T20:48:40.537Z,86.24
2019-02-19T20:51:09.165Z,86.94
2019-02-19T20:53:37.850Z,87.39
2019-02-19T20:56:05.659Z,87.42
2019-02-19T20:58:34.234Z,87.25
2019-02-19T21:01:13.966Z,86.67
2019-02-19T21:03:44.092Z,86.47
2019-02-19T21:06:12.482Z,86.35
2019-02-19T21:08:40.781Z,86.28
2019-02-19T21:11:15.772Z,86.17
2019-02-19T21:13:44.043Z,86.13
2019-02-19T21:16:12.395Z,86.21
2019-02-19T21:18:40.371Z,86.80
2019-02-19T21:21:09.035Z,86.60
2019-02-19T21:23:37.331Z,86.45
2019-02-19T21:26:06.075Z,86.43
2019-02-19T21:28:34.725Z,86.54
2019-02-19T21:31:02.989Z,87.14
2019-02-19T21:33:30.858Z,87.24
2019-02-19T21:35:58.850Z,87.86
2019-02-19T21:38:27.184Z,87.99
2019-02-19T21:40:55.094Z,88.82
2019-02-19T21:43:22.931Z,88.81
2019-02-19T21:45:51.224Z,89.00
2019-02-19T21:48:19.500Z,89.52
2019-02-19T21:50:48.073Z,89.53
2019-02-19T21:53:16.144Z,89.88
2019-02-19T21:55:44.420Z,90.46
2019-02-19T21:58:12.703Z,90.34
2019-02-19T22:00:41.301Z,90.59
2019-02-19T22:03:09.575Z,89.03
2019-02-19T22:05:37.756Z,89.48
2019-02-19T22:08:06.519Z,90.16
2019-02-19T22:10:34.735Z,90.50
2019-02-19T22:13:03.236Z,90.76
2019-02-19T22:15:31.942Z,90.27
2019-02-19T22:17:59.895Z,90.18
2019-02-19T22:20:47.365Z,90.06
2019-02-19T22:23:16.037Z,89.36
2019-02-19T22:25:44.290Z,89.38
2019-02-19T22:28:12.554Z,90.51
2019-02-19T22:30:41.147Z,90.45
2019-02-19T22:33:09.365Z,90.63
2019-02-19T22:35:37.916Z,90.94
2019-02-19T22:38:25.223Z,90.41
2019-02-19T22:41:12.465Z,88.56
2019-02-19T22:43:41.095Z,88.60
2019-02-19T22:46:09.329Z,89.65
2019-02-19T22:48:37.680Z,89.83
2019-02-19T22:51:05.985Z,89.37
2019-02-19T22:53:53.704Z,88.47
2019-02-19T22:56:25.464Z,86.08
2019-02-19T22:58:53.739Z,87.39
2019-02-19T23:01:41.582Z,88.55
2019-02-19T23:04:09.136Z,88.05
2019-02-19T23:06:37.455Z,88.25
2019-02-19T23:09:06.216Z,89.51
2019-02-19T23:11:34.913Z,89.12
2019-02-19T23:14:03.186Z,88.59
2019-02-19T23:16:31.413Z,88.09
2019-02-19T23:19:00.003Z,87.47
2019-02-19T23:21:28.504Z,87.68
2019-02-19T23:23:56.781Z,87.34
2019-02-19T23:26:25.021Z,87.23
2019-02-19T23:28:52.991Z,87.19
2019-02-19T23:31:20.772Z,86.70
2019-02-19T23:33:49.286Z,85.75
2019-02-19T23:36:36.944Z,87.10
2019-02-19T23:39:05.996Z,87.04
2019-02-19T23:41:34.305Z,86.83
2019-02-19T23:44:02.851Z,86.34
2019-02-19T23:46:31.395Z,86.69
2019-02-19T23:48:59.689Z,88.34
2019-02-19T23:51:27.579Z,89.55
2019-02-19T23:53:55.862Z,89.82
2019-02-19T23:56:24.050Z,89.81
2019-02-19T23:58:52.560Z,90.06
